Time;durP1;ratioP1;P1;durP2;ratioP2;P2;SDS_P1;SDS_P2;PMS_P1;PMS_P2;Temp;Humidity;BMP_temperature;BMP_pressure;BME280_temperature;BME280_humidity;BME280_pressure;Samples;Min_cycle;Max_cycle;Signal;HPM_P1;HPM_P2
2022/01/31 00:00:33;;;;;;;;;;;;;;;18.68;57.38;100441.91;5008030;28;956;-65
2022/01/31 00:03:00;;;;;;;;;;;;;;;18.61;56.88;100436.25;5003371;28;1464;-65
2022/01/31 00:05:27;;;;;;;;;;;;;;;18.58;57.17;100441.06;5005432;28;1580;-65
2022/01/31 00:07:53;;;;;;;;;;;;;;;18.53;57.16;100443.31;5009554;28;1377;-65
2022/01/31 00:10:27;;;;;;;;;;;;;;;18.47;57.56;100439.38;5013073;28;1985;-65
2022/01/31 00:12:59;;;;;;;;;;;;;;;18.40;57.09;100440.91;4998118;28;1364;-65
2022/01/31 00:15:27;;;;;;;;;;;;;;;18.36;57.72;100434.13;5001435;28;1232;-65
2022/01/31 00:17:54;;;;;;;;;;;;;;;18.39;57.28;100449.94;5012371;28;1715;-65
2022/01/31 00:20:20;;;;;;;;;;;;;;;18.33;57.61;100435.28;5015337;28;1321;-65
2022/01/31 00:22:47;;;;;;;;;;;;;;;18.30;57.89;100443.56;5009644;28;1488;-65
2022/01/31 00:25:14;;;;;;;;;;;;;;;18.25;57.64;100427.94;5009225;28;1567;-65
2022/01/31 00:27:40;;;;;;;;;;;;;;;18.23;57.43;100432.56;5011275;28;1711;-65
2022/01/31 00:30:08;;;;;;;;;;;;;;;18.15;57.48;100428.91;5005546;28;1906;-65
2022/01/31 00:32:36;;;;;;;;;;;;;;;18.14;57.48;100427.22;5014470;28;1599;-65
2022/01/31 00:35:02;;;;;;;;;;;;;;;18.13;57.70;100423.69;5007472;28;1504;-65
2022/01/31 00:37:29;;;;;;;;;;;;;;;18.06;57.82;100426.09;5012212;28;1362;-65
2022/01/31 00:39:55;;;;;;;;;;;;;;;18.05;57.67;100423.53;5012615;28;1356;-65
2022/01/31 00:42:24;;;;;;;;;;;;;;;18.04;58.05;100416.47;5004242;28;1499;-65
2022/01/31 00:44:53;;;;;;;;;;;;;;;18.00;57.96;100431.97;5005100;28;1566;-65
2022/01/31 00:47:23;;;;;;;;;;;;;;;17.96;58.46;100435.06;4998272;28;1711;-64
2022/01/31 00:49:54;;;;;;;;;;;;;;;17.91;58.48;100426.59;5008785;28;1313;-65
2022/01/31 00:52:21;;;;;;;;;;;;;;;17.86;58.20;100418.97;5009315;28;1981;-65
2022/01/31 00:54:48;;;;;;;;;;;;;;;17.83;58.62;100430.78;5006410;28;1608;-65
2022/01/31 00:57:14;;;;;;;;;;;;;;;17.84;58.62;100435.16;5010565;28;1719;-65
2022/01/31 00:59:41;;;;;;;;;;;;;;;17.80;58.85;100427.50;5004279;28;1539;-65
2022/01/31 01:02:08;;;;;;;;;;;;;;;17.78;58.72;100433.00;5014934;28;1623;-65
2022/01/31 01:04:34;;;;;;;;;;;;;;;17.79;58.74;100428.50;5008136;28;1083;-65
2022/01/31 01:07:02;;;;;;;;;;;;;;;17.75;58.87;100421.75;5006650;28;1747;-65
2022/01/31 01:09:29;;;;;;;;;;;;;;;17.78;58.70;100427.63;5013969;28;1778;-65
2022/01/31 01:11:55;;;;;;;;;;;;;;;17.76;58.72;100429.59;5003029;28;1989;-65
2022/01/31 01:14:22;;;;;;;;;;;;;;;17.75;58.53;100427.09;5006283;28;1568;-65
2022/01/31 01:16:48;;;;;;;;;;;;;;;17.72;58.65;100416.66;5004225;28;979;-65
2022/01/31 01:19:15;;;;;;;;;;;;;;;17.70;58.55;100412.25;5011265;28;1512;-64
2022/01/31 01:21:42;;;;;;;;;;;;;;;17.68;58.96;100422.25;5011014;28;1624;-65
2022/01/31 01:24:09;;;;;;;;;;;;;;;17.64;58.81;100410.13;5011088;28;1540;-65
2022/01/31 01:26:36;;;;;;;;;;;;;;;17.68;58.49;100427.59;5006025;28;1321;-65
2022/01/31 01:29:03;;;;;;;;;;;;;;;17.67;58.30;100414.38;5004085;28;1317;-65
2022/01/31 01:31:29;;;;;;;;;;;;;;;17.67;58.26;100409.03;5007788;28;1978;-65
2022/01/31 01:33:56;;;;;;;;;;;;;;;17.65;58.72;100421.69;5006623;28;1515;-65
2022/01/31 01:36:22;;;;;;;;;;;;;;;17.66;58.65;100416.19;5008020;28;1646;-65
2022/01/31 01:38:49;;;;;;;;;;;;;;;17.65;58.49;100416.34;5012707;28;1511;-65
2022/01/31 01:41:17;;;;;;;;;;;;;;;17.66;58.71;100410.00;5005766;28;1573;-65
2022/01/31 01:43:44;;;;;;;;;;;;;;;17.61;58.34;100420.28;5006790;28;1585;-65
2022/01/31 01:46:10;;;;;;;;;;;;;;;17.58;58.42;100420.53;5015558;28;1396;-65
2022/01/31 01:48:37;;;;;;;;;;;;;;;17.60;58.62;100422.09;5012571;28;1412;-65
2022/01/31 01:51:04;;;;;;;;;;;;;;;17.59;58.33;100427.59;5009609;28;1910;-65
2022/01/31 01:53:30;;;;;;;;;;;;;;;17.60;58.58;100430.09;5006051;28;1577;-65
2022/01/31 01:55:57;;;;;;;;;;;;;;;17.61;58.64;100428.31;5010634;28;1701;-65
2022/01/31 01:58:26;;;;;;;;;;;;;;;17.60;58.62;100426.59;5008830;28;1357;-65
2022/01/31 02:00:58;;;;;;;;;;;;;;;17.59;58.39;100423.09;5004410;28;1201;-65
2022/01/31 02:03:25;;;;;;;;;;;;;;;17.60;58.43;100429.28;5001280;28;1790;-65
2022/01/31 02:05:52;;;;;;;;;;;;;;;17.59;58.26;100422.25;5008120;28;1388;-65
2022/01/31 02:08:19;;;;;;;;;;;;;;;17.55;58.16;100427.00;5009852;28;1596;-64
2022/01/31 02:10:46;;;;;;;;;;;;;;;17.55;59.00;100423.47;5007738;28;1910;-65
2022/01/31 02:13:15;;;;;;;;;;;;;;;17.51;58.72;100409.53;5005181;28;1350;-65
2022/01/31 02:15:44;;;;;;;;;;;;;;;17.55;58.53;100423.47;5004410;28;1080;-65
2022/01/31 02:18:11;;;;;;;;;;;;;;;17.52;58.85;100419.25;5001261;28;1472;-65
2022/01/31 02:20:39;;;;;;;;;;;;;;;17.51;58.90;100422.91;5004588;28;1317;-65
2022/01/31 02:23:06;;;;;;;;;;;;;;;17.67;58.66;100419.75;5004489;28;1528;-65
2022/01/31 02:25:33;;;;;;;;;;;;;;;17.87;58.18;100431.38;5006514;28;1053;-65
2022/01/31 02:27:59;;;;;;;;;;;;;;;18.07;57.58;100421.56;5008421;28;1333;-65
2022/01/31 02:30:26;;;;;;;;;;;;;;;18.21;57.05;100423.00;5008647;28;1620;-65
2022/01/31 02:32:53;;;;;;;;;;;;;;;18.24;57.30;100415.56;4998024;28;1902;-65
2022/01/31 02:35:19;;;;;;;;;;;;;;;18.27;56.82;100427.81;5005982;28;1401;-65
2022/01/31 02:37:47;;;;;;;;;;;;;;;18.35;56.93;100419.06;5004679;28;1308;-65
2022/01/31 02:40:14;;;;;;;;;;;;;;;18.36;56.76;100423.44;5005837;28;1366;-65
2022/01/31 02:42:40;;;;;;;;;;;;;;;18.39;57.09;100442.75;5010198;28;1404;-65
2022/01/31 02:45:08;;;;;;;;;;;;;;;18.38;57.07;100414.28;5003248;28;1499;-65
2022/01/31 02:47:39;;;;;;;;;;;;;;;18.44;56.96;100418.22;5011553;28;1611;-65
2022/01/31 02:50:08;;;;;;;;;;;;;;;18.35;56.78;100414.56;4996903;28;1581;-65
2022/01/31 02:52:36;;;;;;;;;;;;;;;18.36;56.73;100415.41;5006110;28;2043;-65
2022/01/31 02:55:05;;;;;;;;;;;;;;;18.31;56.33;100423.84;5004084;28;1384;-65
2022/01/31 02:57:31;;;;;;;;;;;;;;;18.29;56.91;100420.47;5008843;28;1332;-65
2022/01/31 02:59:58;;;;;;;;;;;;;;;18.19;57.13;100428.50;5008854;28;1723;-65
2022/01/31 03:02:24;;;;;;;;;;;;;;;18.16;57.21;100418.03;5009784;28;1388;-65
2022/01/31 03:04:51;;;;;;;;;;;;;;;18.07;57.63;100417.06;5004278;28;1415;-65
2022/01/31 03:07:18;;;;;;;;;;;;;;;18.02;57.82;100434.50;5006607;28;1440;-65
2022/01/31 03:09:44;;;;;;;;;;;;;;;17.97;57.93;100442.09;5007195;28;1773;-65
2022/01/31 03:12:13;;;;;;;;;;;;;;;18.05;57.74;100429.72;5006182;28;1910;-65
2022/01/31 03:14:42;;;;;;;;;;;;;;;18.09;57.51;100435.66;5004364;28;1345;-65
2022/01/31 03:17:09;;;;;;;;;;;;;;;18.02;57.58;100440.69;5013213;28;1328;-65
2022/01/31 03:19:38;;;;;;;;;;;;;;;18.03;57.41;100425.50;5003630;28;1028;-65
2022/01/31 03:22:05;;;;;;;;;;;;;;;18.07;57.46;100440.31;5000356;28;1590;-65
2022/01/31 03:24:31;;;;;;;;;;;;;;;18.02;57.70;100450.56;5007022;28;1841;-65
2022/01/31 03:26:58;;;;;;;;;;;;;;;17.96;57.59;100457.28;5007733;28;1439;-65
2022/01/31 03:29:26;;;;;;;;;;;;;;;17.92;57.84;100425.59;5004318;28;1584;-65
2022/01/31 03:31:53;;;;;;;;;;;;;;;17.91;57.78;100448.84;5002697;28;1918;-65
2022/01/31 03:34:19;;;;;;;;;;;;;;;17.89;57.96;100434.75;5002885;28;1935;-65
2022/01/31 03:36:46;;;;;;;;;;;;;;;17.95;57.92;100441.41;5008554;28;1770;-65
2022/01/31 03:39:12;;;;;;;;;;;;;;;17.92;57.80;100455.03;5008231;28;1576;-65
2022/01/31 03:41:39;;;;;;;;;;;;;;;17.86;57.93;100451.91;5007109;28;1569;-65
2022/01/31 03:44:06;;;;;;;;;;;;;;;17.78;57.99;100442.84;5006066;28;1561;-65
2022/01/31 03:46:35;;;;;;;;;;;;;;;17.82;58.01;100444.28;5008322;28;1380;-65
2022/01/31 03:49:02;;;;;;;;;;;;;;;17.77;58.22;100443.84;5008686;28;1714;-65
2022/01/31 03:51:28;;;;;;;;;;;;;;;17.82;57.85;100450.47;5001654;28;1907;-65
2022/01/31 03:53:55;;;;;;;;;;;;;;;17.83;57.95;100449.53;5009110;28;1551;-65
2022/01/31 03:56:21;;;;;;;;;;;;;;;17.79;58.00;100440.03;5011721;28;1612;-65
2022/01/31 03:58:48;;;;;;;;;;;;;;;17.75;58.14;100435.13;5010426;28;1432;-65
2022/01/31 04:01:14;;;;;;;;;;;;;;;17.73;58.17;100435.25;5009601;28;1364;-65
2022/01/31 04:03:42;;;;;;;;;;;;;;;17.75;58.23;100419.91;5011672;28;1778;-65
2022/01/31 04:06:09;;;;;;;;;;;;;;;17.79;57.86;100428.50;5014158;28;1491;-65
2022/01/31 04:08:35;;;;;;;;;;;;;;;17.84;57.82;100426.28;5007204;28;1600;-65
2022/01/31 04:11:02;;;;;;;;;;;;;;;17.77;57.98;100417.94;5012434;28;1581;-65
2022/01/31 04:13:28;;;;;;;;;;;;;;;17.76;57.76;100428.75;5005455;28;1972;-65
2022/01/31 04:15:55;;;;;;;;;;;;;;;17.77;57.68;100436.66;5008275;28;1389;-65
2022/01/31 04:18:22;;;;;;;;;;;;;;;17.78;57.56;100433.00;5011752;28;1699;-65
2022/01/31 04:20:50;;;;;;;;;;;;;;;17.75;57.92;100456.50;5006771;28;1699;-65
2022/01/31 04:23:19;;;;;;;;;;;;;;;17.73;57.70;100451.28;5012182;28;1539;-65
2022/01/31 04:25:53;;;;;;;;;;;;;;;17.73;57.89;100467.34;5011721;28;1372;-65
2022/01/31 04:28:22;;;;;;;;;;;;;;;17.70;57.91;100463.06;5010780;28;1415;-65
2022/01/31 04:30:56;;;;;;;;;;;;;;;17.68;57.45;100475.75;5008690;28;984;-65
2022/01/31 04:33:24;;;;;;;;;;;;;;;17.70;57.98;100478.28;5002637;28;1907;-65
2022/01/31 04:35:52;;;;;;;;;;;;;;;17.67;57.80;100467.88;5010786;28;1402;-65
2022/01/31 04:38:19;;;;;;;;;;;;;;;17.63;58.16;100479.81;5011221;28;1668;-65
2022/01/31 04:40:45;;;;;;;;;;;;;;;17.54;58.33;100485.94;5009970;28;1392;-65
2022/01/31 04:43:12;;;;;;;;;;;;;;;17.54;58.09;100477.94;5006776;28;1631;-65
2022/01/31 04:45:46;;;;;;;;;;;;;;;17.53;58.21;100478.91;5012452;28;1325;-65
2022/01/31 04:48:13;;;;;;;;;;;;;;;17.56;58.16;100475.97;5011137;28;1581;-65
2022/01/31 04:50:39;;;;;;;;;;;;;;;17.58;57.77;100477.53;5007604;28;1577;-65
2022/01/31 04:53:07;;;;;;;;;;;;;;;18.08;56.65;100474.97;5011639;28;1910;-65
2022/01/31 04:55:34;;;;;;;;;;;;;;;18.49;55.82;100480.25;5012426;28;1358;-65
2022/01/31 04:58:01;;;;;;;;;;;;;;;18.84;54.68;100484.22;5004794;28;1544;-65
2022/01/31 05:00:28;;;;;;;;;;;;;;;19.11;54.54;100480.00;5013051;28;1497;-65
2022/01/31 05:02:54;;;;;;;;;;;;;;;19.29;54.14;100488.97;5010795;28;1436;-65
2022/01/31 05:05:22;;;;;;;;;;;;;;;19.66;52.54;100482.81;5014452;28;1358;-65
2022/01/31 05:07:51;;;;;;;;;;;;;;;19.81;52.86;100502.81;5013576;28;1381;-65
2022/01/31 05:10:19;;;;;;;;;;;;;;;19.85;51.73;100496.16;5014248;28;1218;-65
2022/01/31 05:12:46;;;;;;;;;;;;;;;19.80;52.23;100509.19;5015542;28;1914;-65
2022/01/31 05:15:12;;;;;;;;;;;;;;;19.84;52.79;100507.06;5014607;28;1441;-65
2022/01/31 05:17:39;;;;;;;;;;;;;;;19.82;52.51;100511.75;5013506;28;1389;-65
2022/01/31 05:20:06;;;;;;;;;;;;;;;19.89;52.64;100511.97;5015957;28;1461;-65
2022/01/31 05:22:33;;;;;;;;;;;;;;;19.90;52.78;100508.31;5013699;28;1611;-58
2022/01/31 05:24:59;;;;;;;;;;;;;;;19.86;53.17;100518.50;5014790;28;1397;-58
2022/01/31 05:27:27;;;;;;;;;;;;;;;19.66;52.77;100525.75;5014558;28;1337;-57
2022/01/31 05:29:54;;;;;;;;;;;;;;;19.63;53.08;100534.06;5014540;28;1520;-62
2022/01/31 05:32:20;;;;;;;;;;;;;;;19.60;53.43;100529.00;5014405;28;1977;-61
2022/01/31 05:34:47;;;;;;;;;;;;;;;19.55;53.50;100537.47;5014499;28;1311;-64
2022/01/31 05:37:14;;;;;;;;;;;;;;;19.60;53.78;100529.00;5006800;28;1109;-66
2022/01/31 05:39:42;;;;;;;;;;;;;;;19.64;53.98;100533.09;5009363;28;1274;-64
2022/01/31 05:42:09;;;;;;;;;;;;;;;19.54;53.26;100537.63;5009244;28;1448;-65
2022/01/31 05:44:37;;;;;;;;;;;;;;;19.48;53.72;100539.88;5007949;28;1417;-59
2022/01/31 05:47:04;;;;;;;;;;;;;;;19.41;54.35;100541.44;5004585;28;1406;-63
2022/01/31 05:49:30;;;;;;;;;;;;;;;19.43;53.92;100535.94;5004586;28;1621;-66
2022/01/31 05:52:02;;;;;;;;;;;;;;;19.27;54.04;100544.56;5008889;28;1906;-65
2022/01/31 05:54:29;;;;;;;;;;;;;;;19.16;54.30;100539.34;5013032;28;1769;-66
2022/01/31 05:56:56;;;;;;;;;;;;;;;19.11;54.36;100550.50;5009093;28;1468;-65
2022/01/31 05:59:23;;;;;;;;;;;;;;;19.03;54.85;100536.97;5004921;28;1419;-66
2022/01/31 06:01:51;;;;;;;;;;;;;;;18.97;54.69;100541.06;5009341;28;1405;-67
2022/01/31 06:04:17;;;;;;;;;;;;;;;18.95;54.60;100529.63;5002142;28;1515;-64
2022/01/31 06:06:44;;;;;;;;;;;;;;;18.93;55.19;100526.25;5011016;28;1487;-64
2022/01/31 06:09:11;;;;;;;;;;;;;;;18.89;54.68;100532.88;5002151;28;1869;-64
2022/01/31 06:11:37;;;;;;;;;;;;;;;18.90;55.16;100531.91;5006666;28;1364;-65
2022/01/31 06:14:07;;;;;;;;;;;;;;;18.88;54.78;100547.28;5006580;28;1973;-63
2022/01/31 06:16:34;;;;;;;;;;;;;;;18.90;54.94;100539.06;5001117;28;1033;-65
2022/01/31 06:19:02;;;;;;;;;;;;;;;18.92;54.71;100543.34;5001165;28;1452;-63
2022/01/31 06:21:29;;;;;;;;;;;;;;;18.93;54.77;100547.69;5009812;28;1624;-65
2022/01/31 06:23:55;;;;;;;;;;;;;;;18.92;54.79;100550.50;5011111;28;1317;-63
2022/01/31 06:26:22;;;;;;;;;;;;;;;18.97;55.03;100551.78;5002806;28;1370;-63
2022/01/31 06:28:49;;;;;;;;;;;;;;;18.95;54.26;100550.25;5010787;28;1388;-63
2022/01/31 06:31:16;;;;;;;;;;;;;;;18.93;54.92;100545.00;5011930;28;1349;-65
2022/01/31 06:33:42;;;;;;;;;;;;;;;18.92;54.22;100531.75;5008560;28;1971;-63
2022/01/31 06:36:10;;;;;;;;;;;;;;;18.97;54.79;100553.63;5007325;28;1424;-63
2022/01/31 06:38:38;;;;;;;;;;;;;;;18.94;55.10;100554.75;5006517;28;1417;-65
2022/01/31 06:41:05;;;;;;;;;;;;;;;18.97;54.62;100548.25;5014097;28;1576;-65
2022/01/31 06:43:31;;;;;;;;;;;;;;;18.93;55.11;100549.53;4999297;28;1376;-65
2022/01/31 06:45:58;;;;;;;;;;;;;;;18.97;54.43;100549.09;5006658;28;1057;-64
2022/01/31 06:48:24;;;;;;;;;;;;;;;18.99;54.54;100538.25;5011468;28;1797;-64
2022/01/31 06:50:51;;;;;;;;;;;;;;;19.01;54.09;100542.47;5008669;28;1432;-65
2022/01/31 06:53:25;;;;;;;;;;;;;;;19.06;53.96;100548.25;5008732;28;1931;-64
2022/01/31 06:55:52;;;;;;;;;;;;;;;19.10;53.94;100550.66;5003695;28;1539;-64
2022/01/31 06:58:18;;;;;;;;;;;;;;;19.08;54.22;100540.09;5006557;28;1469;-65
2022/01/31 07:00:45;;;;;;;;;;;;;;;19.11;54.08;100541.63;5005969;28;1528;-65
2022/01/31 07:03:13;;;;;;;;;;;;;;;19.08;54.06;100527.53;5003516;28;1655;-63
2022/01/31 07:05:39;;;;;;;;;;;;;;;19.07;53.90;100536.53;5003964;28;1572;-64
2022/01/31 07:08:07;;;;;;;;;;;;;;;19.12;54.76;100544.19;5003951;28;1341;-64
2022/01/31 07:10:35;;;;;;;;;;;;;;;19.11;54.37;100538.94;5012970;28;1562;-65
2022/01/31 07:13:03;;;;;;;;;;;;;;;19.12;54.46;100540.63;5004834;28;1977;-63
2022/01/31 07:15:30;;;;;;;;;;;;;;;19.13;53.83;100535.13;5005076;28;1097;-64
2022/01/31 07:17:56;;;;;;;;;;;;;;;19.18;53.75;100529.34;4997757;28;1735;-65
2022/01/31 07:20:34;;;;;;;;;;;;;;;19.20;54.58;100527.34;5013513;28;1495;-64
2022/01/31 07:23:07;;;;;;;;;;;;;;;19.19;54.38;100536.41;5011562;28;1396;-64
2022/01/31 07:25:36;;;;;;;;;;;;;;;19.19;54.27;100509.59;5006198;28;1615;-65
2022/01/31 07:28:03;;;;;;;;;;;;;;;19.18;54.41;100523.97;5007464;28;1026;-71
2022/01/31 07:30:30;;;;;;;;;;;;;;;19.33;53.91;100514.50;5012193;28;1535;-63
2022/01/31 07:32:56;;;;;;;;;;;;;;;19.34;54.44;100528.75;5013433;28;1910;-62
2022/01/31 07:35:23;;;;;;;;;;;;;;;19.32;55.35;100514.66;5010845;28;1569;-64
2022/01/31 07:37:50;;;;;;;;;;;;;;;19.42;55.44;100521.69;5015380;28;1525;-65
2022/01/31 07:40:16;;;;;;;;;;;;;;;19.38;55.34;100525.66;5012514;28;1440;-67
2022/01/31 07:42:44;;;;;;;;;;;;;;;19.43;55.18;100518.00;5013529;28;1461;-64
2022/01/31 07:45:11;;;;;;;;;;;;;;;19.54;54.67;100524.22;5011048;28;1341;-64
2022/01/31 07:47:38;;;;;;;;;;;;;;;19.46;55.48;100512.38;5016330;28;1519;-59
2022/01/31 07:50:05;;;;;;;;;;;;;;;19.64;54.02;100525.03;5017051;28;1726;-61
2022/01/31 07:52:32;;;;;;;;;;;;;;;19.60;56.20;100523.66;5013237;28;1903;-63
2022/01/31 07:54:58;;;;;;;;;;;;;;;19.55;55.17;100509.81;5011934;28;1384;-64
2022/01/31 07:57:25;;;;;;;;;;;;;;;19.50;56.63;100512.94;5014935;28;1773;-66
2022/01/31 07:59:53;;;;;;;;;;;;;;;19.57;56.91;100516.72;5011523;28;1421;-60
2022/01/31 08:02:20;;;;;;;;;;;;;;;19.63;56.79;100520.66;4999213;28;1468;-65
2022/01/31 08:04:47;;;;;;;;;;;;;;;19.64;55.42;100517.00;5011404;28;1647;-59
2022/01/31 08:07:14;;;;;;;;;;;;;;;19.57;55.59;100507.81;5007719;28;1341;-59
2022/01/31 08:09:40;;;;;;;;;;;;;;;19.46;56.53;100501.66;5007139;28;1744;-60
2022/01/31 08:12:08;;;;;;;;;;;;;;;19.63;57.23;100521.50;5014501;28;1515;-61
2022/01/31 08:14:36;;;;;;;;;;;;;;;19.68;56.09;100519.22;5014492;28;1971;-63
2022/01/31 08:17:04;;;;;;;;;;;;;;;19.57;56.52;100505.97;5016778;28;1511;-63
2022/01/31 08:19:30;;;;;;;;;;;;;;;19.55;57.39;100513.31;5000940;28;1055;-63
2022/01/31 08:21:57;;;;;;;;;;;;;;;19.58;57.38;100509.53;5016840;28;1797;-63
2022/01/31 08:24:24;;;;;;;;;;;;;;;19.54;57.40;100505.44;5011788;28;1429;-63
2022/01/31 08:26:51;;;;;;;;;;;;;;;19.53;57.05;100495.69;5011123;28;1401;-63
2022/01/31 08:29:22;;;;;;;;;;;;;;;19.45;56.75;100513.34;5006877;28;1553;-61
2022/01/31 08:31:52;;;;;;;;;;;;;;;19.57;56.56;100515.88;4997805;28;1060;-61
2022/01/31 08:34:25;;;;;;;;;;;;;;;19.54;56.94;100514.34;5010819;28;1977;-64
2022/01/31 08:36:51;;;;;;;;;;;;;;;19.48;57.61;100526.47;5011361;28;1416;-72
2022/01/31 08:39:19;;;;;;;;;;;;;;;19.57;56.56;100527.44;5011934;28;1535;-65
2022/01/31 08:41:47;;;;;;;;;;;;;;;19.63;56.58;100534.06;5010600;28;1314;-74
2022/01/31 08:44:15;;;;;;;;;;;;;;;19.52;55.38;100534.22;5012826;28;1423;-62
2022/01/31 08:46:42;;;;;;;;;;;;;;;19.55;55.10;100518.69;5016409;28;1281;-60
2022/01/31 08:49:08;;;;;;;;;;;;;;;19.43;52.28;100512.66;5012604;28;1523;-66
2022/01/31 08:51:37;;;;;;;;;;;;;;;19.32;53.76;100518.19;5006946;28;1472;-64
2022/01/31 08:54:05;;;;;;;;;;;;;;;19.31;52.02;100518.34;5012510;28;1910;-67
2022/01/31 08:56:35;;;;;;;;;;;;;;;19.29;50.67;100505.06;5015870;28;1541;-61
2022/01/31 08:59:04;;;;;;;;;;;;;;;19.42;50.65;100504.78;5011298;28;1557;-68
2022/01/31 09:01:30;;;;;;;;;;;;;;;19.46;50.86;100504.31;5016281;28;1519;-65
2022/01/31 09:04:04;;;;;;;;;;;;;;;19.51;51.68;100495.00;5010304;28;1786;-62
2022/01/31 09:06:32;;;;;;;;;;;;;;;19.55;51.46;100493.72;5013960;28;1484;-61
2022/01/31 09:09:01;;;;;;;;;;;;;;;19.62;52.72;100497.53;5010518;28;1576;-62
2022/01/31 09:11:28;;;;;;;;;;;;;;;19.58;53.30;100496.13;5008346;28;1357;-63
2022/01/31 09:13:55;;;;;;;;;;;;;;;19.60;52.75;100502.19;5009296;28;1949;-65
2022/01/31 09:16:22;;;;;;;;;;;;;;;19.66;53.27;100506.97;5016837;28;1490;-70
2022/01/31 09:18:49;;;;;;;;;;;;;;;19.68;53.46;100502.28;5008746;28;1512;-62
2022/01/31 09:21:15;;;;;;;;;;;;;;;19.68;53.83;100499.63;5001977;28;1573;-64
2022/01/31 09:23:42;;;;;;;;;;;;;;;19.64;52.72;100493.69;5013375;28;1324;-63
2022/01/31 09:26:10;;;;;;;;;;;;;;;19.79;53.44;100496.75;5012629;28;1236;-62
2022/01/31 09:28:37;;;;;;;;;;;;;;;19.82;53.82;100485.75;5008264;28;1401;-59
2022/01/31 09:31:04;;;;;;;;;;;;;;;19.79;54.13;100482.50;5011665;28;1441;-61
2022/01/31 09:33:30;;;;;;;;;;;;;;;19.72;53.54;100462.66;5009554;28;1903;-61
2022/01/31 09:35:57;;;;;;;;;;;;;;;19.70;53.43;100469.97;5004141;28;1521;-61
2022/01/31 09:38:24;;;;;;;;;;;;;;;19.65;54.17;100465.84;5006803;28;1325;-60
2022/01/31 09:40:51;;;;;;;;;;;;;;;19.67;54.10;100452.31;5001763;28;1505;-60
2022/01/31 09:49:12;;;;;;;;;;;;;;;19.72;53.91;100451.91;4992424;28;2160;-57
2022/01/31 09:51:39;;;;;;;;;;;;;;;19.73;54.37;100443.69;5005944;28;1687;-60
2022/01/31 09:54:06;;;;;;;;;;;;;;;19.75;54.49;100451.59;5005226;28;1910;-57
2022/01/31 09:56:34;;;;;;;;;;;;;;;19.79;53.92;100453.84;5005209;28;1623;-57
2022/01/31 09:59:01;;;;;;;;;;;;;;;19.80;53.68;100450.16;5005270;28;1557;-57
2022/01/31 10:01:30;;;;;;;;;;;;;;;19.78;53.31;100456.69;5002256;28;1388;-57
2022/01/31 10:03:58;;;;;;;;;;;;;;;19.79;54.12;100444.94;5005853;28;1778;-61
2022/01/31 10:06:26;;;;;;;;;;;;;;;19.75;53.63;100441.72;5005331;28;1619;-60
2022/01/31 10:09:04;;;;;;;;;;;;;;;19.74;54.14;100434.66;5005265;28;1561;-61
2022/01/31 10:11:39;;;;;;;;;;;;;;;19.76;53.61;100431.84;5005094;28;1556;-57
2022/01/31 10:16:56;;;;;;;;;;;;;;;19.74;53.48;100399.78;5008053;28;1521;-60
2022/01/31 10:19:22;;;;;;;;;;;;;;;19.76;53.75;100396.97;5007697;28;1675;-63
2022/01/31 10:22:02;;;;;;;;;;;;;;;19.73;54.67;100395.41;5002921;28;1759;-63
2022/01/31 10:24:29;;;;;;;;;;;;;;;19.74;53.65;100394.44;5005088;28;1564;-60
2022/01/31 10:26:55;;;;;;;;;;;;;;;19.74;54.49;100391.75;5002586;28;1604;-60
2022/01/31 10:29:23;;;;;;;;;;;;;;;19.72;53.99;100391.03;5002818;28;1541;-62
2022/01/31 10:31:59;;;;;;;;;;;;;;;19.72;54.61;100392.91;5003491;28;1119;-60
2022/01/31 10:34:27;;;;;;;;;;;;;;;19.72;54.05;100371.44;5007053;28;1911;-63
2022/01/31 10:36:54;;;;;;;;;;;;;;;19.76;54.49;100349.50;5007495;28;1802;-63
2022/01/31 10:45:21;;;;;;;;;;;;;;;19.75;54.24;100361.22;4998373;28;1710;-63
2022/01/31 10:51:00;;;;;;;;;;;;;;;19.69;54.13;100356.44;4997917;28;1580;-60
2022/01/31 10:53:26;;;;;;;;;;;;;;;19.71;53.58;100354.47;4998086;28;1979;-60
2022/01/31 10:55:54;;;;;;;;;;;;;;;19.71;53.93;100359.84;5007511;28;1436;-62
2022/01/31 10:58:21;;;;;;;;;;;;;;;19.70;53.50;100331.31;5003553;28;1583;-63
2022/01/31 11:00:48;;;;;;;;;;;;;;;19.70;54.25;100338.50;5003505;28;1197;-60
2022/01/31 11:03:30;;;;;;;;;;;;;;;19.68;53.42;100331.44;4999238;28;1758;-63
2022/01/31 11:05:57;;;;;;;;;;;;;;;19.68;53.86;100331.44;5004209;28;1549;-60
2022/01/31 11:08:24;;;;;;;;;;;;;;;19.67;54.02;100312.81;5004928;28;1580;-60
2022/01/31 11:10:50;;;;;;;;;;;;;;;19.72;53.83;100313.25;5007363;28;1427;-63
2022/01/31 11:13:17;;;;;;;;;;;;;;;19.69;53.38;100305.47;5002823;28;1898;-63
2022/01/31 11:15:44;;;;;;;;;;;;;;;19.70;54.53;100306.31;5013963;28;1500;-60
2022/01/31 11:18:11;;;;;;;;;;;;;;;19.75;53.74;100309.41;5008883;28;1743;-63
2022/01/31 11:20:43;;;;;;;;;;;;;;;19.76;53.99;100308.44;5004530;28;1620;-63
2022/01/31 11:23:10;;;;;;;;;;;;;;;19.78;53.52;100301.91;5004773;28;1313;-63
2022/01/31 11:25:39;;;;;;;;;;;;;;;19.82;53.35;100314.03;5003796;28;1596;-60
2022/01/31 11:28:06;;;;;;;;;;;;;;;19.79;53.56;100310.78;5002828;28;983;-63
2022/01/31 11:30:33;;;;;;;;;;;;;;;19.75;53.93;100318.28;5006844;28;1718;-60
2022/01/31 11:33:01;;;;;;;;;;;;;;;19.71;53.53;100314.22;4997484;28;1715;-60
2022/01/31 11:35:27;;;;;;;;;;;;;;;19.68;53.46;100288.53;5005957;28;1898;-59
2022/01/31 11:37:55;;;;;;;;;;;;;;;19.72;53.41;100289.09;5006229;28;1509;-63
2022/01/31 11:40:22;;;;;;;;;;;;;;;19.70;53.67;100288.38;5004556;28;1576;-60
2022/01/31 11:42:50;;;;;;;;;;;;;;;19.69;53.87;100292.03;5005391;28;1647;-57
2022/01/31 11:45:19;;;;;;;;;;;;;;;19.66;53.97;100277.09;5006924;28;1578;-58
2022/01/31 11:47:48;;;;;;;;;;;;;;;19.69;53.70;100289.34;5011342;28;1667;-57
2022/01/31 11:50:16;;;;;;;;;;;;;;;19.67;53.84;100278.78;5006172;28;1600;-60
2022/01/31 11:52:44;;;;;;;;;;;;;;;19.65;54.17;100259.31;5004424;28;1455;-57
2022/01/31 11:55:13;;;;;;;;;;;;;;;19.65;54.45;100263.84;5003885;28;1983;-60
2022/01/31 11:57:40;;;;;;;;;;;;;;;19.68;53.54;100263.53;5005515;28;1016;-58
2022/01/31 12:00:09;;;;;;;;;;;;;;;19.71;53.84;100274.00;5002629;28;1446;-57
2022/01/31 12:02:41;;;;;;;;;;;;;;;19.61;51.44;100289.28;5010795;28;1699;-60
2022/01/31 12:05:08;;;;;;;;;;;;;;;19.40;50.26;100263.59;5004034;28;1624;-56
2022/01/31 12:07:39;;;;;;;;;;;;;;;19.20;49.14;100251.25;5003946;28;1321;-58
2022/01/31 12:10:06;;;;;;;;;;;;;;;19.11;49.02;100241.47;5005345;28;1588;-60
2022/01/31 12:12:46;;;;;;;;;;;;;;;19.16;47.06;100248.06;4995039;28;977;-58
2022/01/31 12:15:34;;;;;;;;;;;;;;;19.21;47.16;100237.72;5013498;28;1910;-58
2022/01/31 12:18:33;;;;;;;;;;;;;;;19.27;47.58;100237.13;5014870;28;1487;-61
2022/01/31 12:23:50;;;;;;;;;;;;;;;19.36;48.67;100246.13;5005065;28;1229;-59
2022/01/31 12:26:29;;;;;;;;;;;;;;;19.51;50.28;100240.22;5013614;28;1301;-59
2022/01/31 12:28:58;;;;;;;;;;;;;;;19.58;49.86;100235.97;5008334;28;1883;-59
2022/01/31 12:31:28;;;;;;;;;;;;;;;19.67;49.72;100226.97;5009323;28;1499;-58
2022/01/31 12:33:54;;;;;;;;;;;;;;;19.66;50.47;100244.09;5004906;28;1906;-63
2022/01/31 12:36:39;;;;;;;;;;;;;;;19.61;49.80;100251.72;5006467;28;1439;-62
2022/01/31 12:39:26;;;;;;;;;;;;;;;19.67;49.80;100240.38;5013555;28;1450;-66
2022/01/31 12:42:00;;;;;;;;;;;;;;;19.60;50.97;100244.69;5009147;28;1289;-64
2022/01/31 12:44:47;;;;;;;;;;;;;;;19.71;50.48;100243.63;5013062;28;1428;-64
2022/01/31 12:47:14;;;;;;;;;;;;;;;19.64;50.84;100248.75;5003809;28;1378;-63
2022/01/31 12:49:41;;;;;;;;;;;;;;;19.62;51.27;100223.94;5007709;28;1515;-63
2022/01/31 12:52:10;;;;;;;;;;;;;;;19.56;51.76;100243.31;5006924;28;1053;-66
2022/01/31 12:54:37;;;;;;;;;;;;;;;19.55;52.15;100236.25;5003519;28;1903;-63
2022/01/31 12:57:05;;;;;;;;;;;;;;;19.55;52.01;100225.50;5003236;28;1567;-64
2022/01/31 12:59:32;;;;;;;;;;;;;;;19.70;52.07;100223.16;5004690;28;1610;-63
2022/01/31 13:02:03;;;;;;;;;;;;;;;19.60;52.04;100204.47;4994627;28;1364;-63
2022/01/31 13:04:30;;;;;;;;;;;;;;;19.51;51.75;100194.63;5010252;28;1384;-62
2022/01/31 13:06:59;;;;;;;;;;;;;;;19.45;52.97;100194.25;5009825;28;1824;-64
2022/01/31 13:09:26;;;;;;;;;;;;;;;19.44;52.99;100194.41;5008415;28;1774;-65
2022/01/31 13:11:54;;;;;;;;;;;;;;;19.39;53.27;100184.13;5004410;28;1773;-65